sensor_id;sensor_type;location;lat;lon;timestamp;P1;durP1;ratioP1;P2;durP2;ratioP2
60241;SDS011;46103;52.076;113.488;2024-01-27T00:02:02;68.05;;;26.23;;
60241;SDS011;46103;52.076;113.488;2024-01-27T00:05:18;52.28;;;25.75;;
60241;SDS011;46103;52.076;113.488;2024-01-27T00:08:34;60.75;;;27.88;;
60241;SDS011;46103;52.076;113.488;2024-01-27T00:11:50;63.55;;;27.40;;
60241;SDS011;46103;52.076;113.488;2024-01-27T00:15:23;48.03;;;24.15;;
60241;SDS011;46103;52.076;113.488;2024-01-27T00:18:39;51.67;;;23.83;;
60241;SDS011;46103;52.076;113.488;2024-01-27T00:21:53;48.35;;;26.63;;
60241;SDS011;46103;52.076;113.488;2024-01-27T00:25:05;73.80;;;29.92;;
60241;SDS011;46103;52.076;113.488;2024-01-27T00:28:14;63.90;;;30.77;;
60241;SDS011;46103;52.076;113.488;2024-01-27T00:31:24;76.05;;;36.67;;
60241;SDS011;46103;52.076;113.488;2024-01-27T00:34:38;71.20;;;37.78;;
60241;SDS011;46103;52.076;113.488;2024-01-27T00:41:59;86.15;;;39.40;;
60241;SDS011;46103;52.076;113.488;2024-01-27T00:45:04;94.60;;;37.33;;
60241;SDS011;46103;52.076;113.488;2024-01-27T00:48:08;90.97;;;36.38;;
60241;SDS011;46103;52.076;113.488;2024-01-27T00:51:14;91.00;;;45.58;;
60241;SDS011;46103;52.076;113.488;2024-01-27T00:54:29;88.40;;;38.75;;
60241;SDS011;46103;52.076;113.488;2024-01-27T00:57:37;99.20;;;45.33;;
60241;SDS011;46103;52.076;113.488;2024-01-27T01:00:48;77.53;;;38.42;;
60241;SDS011;46103;52.076;113.488;2024-01-27T01:03:59;95.28;;;42.13;;
60241;SDS011;46103;52.076;113.488;2024-01-27T01:07:28;82.88;;;38.15;;
60241;SDS011;46103;52.076;113.488;2024-01-27T01:10:40;88.85;;;42.50;;
60241;SDS011;46103;52.076;113.488;2024-01-27T01:21:17;72.32;;;33.42;;
60241;SDS011;46103;52.076;113.488;2024-01-27T01:24:53;95.60;;;48.17;;
60241;SDS011;46103;52.076;113.488;2024-01-27T01:28:14;84.30;;;41.15;;
60241;SDS011;46103;52.076;113.488;2024-01-27T01:38:38;86.40;;;38.45;;
60241;SDS011;46103;52.076;113.488;2024-01-27T01:42:09;50.60;;;30.48;;
60241;SDS011;46103;52.076;113.488;2024-01-27T01:45:23;49.78;;;19.67;;
60241;SDS011;46103;52.076;113.488;2024-01-27T01:48:27;62.00;;;23.98;;
60241;SDS011;46103;52.076;113.488;2024-01-27T01:51:49;64.32;;;31.45;;
60241;SDS011;46103;52.076;113.488;2024-01-27T01:55:10;79.88;;;34.97;;
60241;SDS011;46103;52.076;113.488;2024-01-27T01:58:13;88.25;;;39.42;;
60241;SDS011;46103;52.076;113.488;2024-01-27T02:01:18;49.10;;;22.05;;
60241;SDS011;46103;52.076;113.488;2024-01-27T02:04:26;106.35;;;43.90;;
60241;SDS011;46103;52.076;113.488;2024-01-27T02:07:30;132.98;;;56.50;;
60241;SDS011;46103;52.076;113.488;2024-01-27T02:10:33;121.95;;;54.72;;
60241;SDS011;46103;52.076;113.488;2024-01-27T02:13:41;153.65;;;67.50;;
60241;SDS011;46103;52.076;113.488;2024-01-27T02:16:54;160.05;;;69.40;;
60241;SDS011;46103;52.076;113.488;2024-01-27T02:19:59;159.85;;;76.63;;
60241;SDS011;46103;52.076;113.488;2024-01-27T02:23:20;158.20;;;75.75;;
60241;SDS011;46103;52.076;113.488;2024-01-27T02:26:27;183.65;;;83.97;;
60241;SDS011;46103;52.076;113.488;2024-01-27T02:29:32;175.05;;;77.03;;
60241;SDS011;46103;52.076;113.488;2024-01-27T02:32:38;171.13;;;77.20;;
60241;SDS011;46103;52.076;113.488;2024-01-27T02:35:44;194.45;;;82.88;;
60241;SDS011;46103;52.076;113.488;2024-01-27T02:38:49;182.32;;;83.07;;
60241;SDS011;46103;52.076;113.488;2024-01-27T02:41:54;125.88;;;53.63;;
60241;SDS011;46103;52.076;113.488;2024-01-27T02:44:58;211.77;;;92.82;;
60241;SDS011;46103;52.076;113.488;2024-01-27T02:48:08;111.88;;;41.22;;
60241;SDS011;46103;52.076;113.488;2024-01-27T02:51:21;183.95;;;76.50;;
60241;SDS011;46103;52.076;113.488;2024-01-27T02:54:29;266.90;;;113.68;;
60241;SDS011;46103;52.076;113.488;2024-01-27T02:57:40;249.70;;;121.53;;
60241;SDS011;46103;52.076;113.488;2024-01-27T03:01:30;238.48;;;110.40;;
60241;SDS011;46103;52.076;113.488;2024-01-27T03:04:51;237.18;;;122.45;;
60241;SDS011;46103;52.076;113.488;2024-01-27T03:07:57;252.73;;;115.72;;
60241;SDS011;46103;52.076;113.488;2024-01-27T03:11:02;249.00;;;123.57;;
60241;SDS011;46103;52.076;113.488;2024-01-27T03:14:10;248.45;;;124.35;;
60241;SDS011;46103;52.076;113.488;2024-01-27T03:17:22;278.23;;;127.72;;
60241;SDS011;46103;52.076;113.488;2024-01-27T03:20:31;247.25;;;109.93;;
60241;SDS011;46103;52.076;113.488;2024-01-27T03:24:32;174.75;;;77.97;;
60241;SDS011;46103;52.076;113.488;2024-01-27T03:27:44;263.75;;;122.63;;
60241;SDS011;46103;52.076;113.488;2024-01-27T03:30:54;247.23;;;122.28;;
60241;SDS011;46103;52.076;113.488;2024-01-27T03:34:01;259.75;;;117.25;;
60241;SDS011;46103;52.076;113.488;2024-01-27T03:37:09;277.80;;;121.78;;
60241;SDS011;46103;52.076;113.488;2024-01-27T03:40:23;242.63;;;118.25;;
60241;SDS011;46103;52.076;113.488;2024-01-27T03:44:29;244.43;;;116.13;;
60241;SDS011;46103;52.076;113.488;2024-01-27T03:47:34;235.77;;;102.57;;
60241;SDS011;46103;52.076;113.488;2024-01-27T03:50:42;233.68;;;103.82;;
60241;SDS011;46103;52.076;113.488;2024-01-27T03:53:51;128.10;;;55.15;;
60241;SDS011;46103;52.076;113.488;2024-01-27T03:56:57;82.70;;;37.30;;
60241;SDS011;46103;52.076;113.488;2024-01-27T04:00:05;188.25;;;87.63;;
60241;SDS011;46103;52.076;113.488;2024-01-27T04:03:11;154.40;;;70.82;;
60241;SDS011;46103;52.076;113.488;2024-01-27T04:06:18;61.92;;;27.98;;
60241;SDS011;46103;52.076;113.488;2024-01-27T04:09:24;40.83;;;16.58;;
60241;SDS011;46103;52.076;113.488;2024-01-27T04:12:33;33.63;;;14.80;;
60241;SDS011;46103;52.076;113.488;2024-01-27T04:15:39;50.22;;;21.52;;
60241;SDS011;46103;52.076;113.488;2024-01-27T04:18:46;42.95;;;17.55;;
60241;SDS011;46103;52.076;113.488;2024-01-27T04:21:59;37.05;;;16.73;;
60241;SDS011;46103;52.076;113.488;2024-01-27T04:25:07;33.13;;;13.52;;
60241;SDS011;46103;52.076;113.488;2024-01-27T04:28:13;35.30;;;13.10;;
60241;SDS011;46103;52.076;113.488;2024-01-27T04:31:19;30.70;;;12.20;;
60241;SDS011;46103;52.076;113.488;2024-01-27T04:34:26;41.40;;;16.08;;
60241;SDS011;46103;52.076;113.488;2024-01-27T04:37:33;40.72;;;17.52;;
60241;SDS011;46103;52.076;113.488;2024-01-27T04:40:39;44.22;;;17.58;;
60241;SDS011;46103;52.076;113.488;2024-01-27T04:43:46;48.53;;;19.67;;
60241;SDS011;46103;52.076;113.488;2024-01-27T04:47:04;51.72;;;22.20;;
60241;SDS011;46103;52.076;113.488;2024-01-27T04:50:30;58.92;;;25.98;;
60241;SDS011;46103;52.076;113.488;2024-01-27T04:54:08;88.78;;;39.92;;
60241;SDS011;46103;52.076;113.488;2024-01-27T04:57:29;116.80;;;50.78;;
60241;SDS011;46103;52.076;113.488;2024-01-27T05:00:45;122.60;;;53.88;;
60241;SDS011;46103;52.076;113.488;2024-01-27T05:04:10;134.90;;;59.30;;
60241;SDS011;46103;52.076;113.488;2024-01-27T05:07:43;120.40;;;54.53;;
60241;SDS011;46103;52.076;113.488;2024-01-27T05:11:30;96.32;;;44.22;;
60241;SDS011;46103;52.076;113.488;2024-01-27T05:15:06;88.35;;;38.53;;
60241;SDS011;46103;52.076;113.488;2024-01-27T05:18:14;105.82;;;45.90;;
60241;SDS011;46103;52.076;113.488;2024-01-27T05:21:22;105.75;;;48.15;;
60241;SDS011;46103;52.076;113.488;2024-01-27T05:24:49;93.53;;;40.42;;
60241;SDS011;46103;52.076;113.488;2024-01-27T05:27:58;83.57;;;38.53;;
60241;SDS011;46103;52.076;113.488;2024-01-27T05:31:07;83.10;;;38.75;;
60241;SDS011;46103;52.076;113.488;2024-01-27T05:34:14;93.13;;;38.28;;
60241;SDS011;46103;52.076;113.488;2024-01-27T05:37:22;82.68;;;39.92;;
60241;SDS011;46103;52.076;113.488;2024-01-27T05:40:30;99.78;;;48.28;;
60241;SDS011;46103;52.076;113.488;2024-01-27T05:43:39;78.57;;;32.85;;
60241;SDS011;46103;52.076;113.488;2024-01-27T05:46:45;81.25;;;36.10;;
60241;SDS011;46103;52.076;113.488;2024-01-27T05:49:52;78.68;;;34.88;;
60241;SDS011;46103;52.076;113.488;2024-01-27T05:52:58;76.05;;;37.05;;
60241;SDS011;46103;52.076;113.488;2024-01-27T05:56:05;91.80;;;43.28;;
60241;SDS011;46103;52.076;113.488;2024-01-27T05:59:11;76.30;;;35.50;;
60241;SDS011;46103;52.076;113.488;2024-01-27T06:02:18;77.80;;;35.83;;
60241;SDS011;46103;52.076;113.488;2024-01-27T06:05:26;90.15;;;40.45;;
60241;SDS011;46103;52.076;113.488;2024-01-27T06:08:33;80.82;;;35.20;;
60241;SDS011;46103;52.076;113.488;2024-01-27T06:11:41;79.85;;;35.88;;
60241;SDS011;46103;52.076;113.488;2024-01-27T06:14:49;62.28;;;30.00;;
60241;SDS011;46103;52.076;113.488;2024-01-27T06:18:01;74.30;;;35.67;;
60241;SDS011;46103;52.076;113.488;2024-01-27T06:21:10;70.30;;;30.35;;
60241;SDS011;46103;52.076;113.488;2024-01-27T06:24:16;68.63;;;30.30;;
60241;SDS011;46103;52.076;113.488;2024-01-27T06:27:23;83.90;;;39.72;;
60241;SDS011;46103;52.076;113.488;2024-01-27T06:30:29;76.05;;;35.15;;
60241;SDS011;46103;52.076;113.488;2024-01-27T06:33:36;89.95;;;41.42;;
60241;SDS011;46103;52.076;113.488;2024-01-27T06:36:43;109.50;;;48.28;;
60241;SDS011;46103;52.076;113.488;2024-01-27T06:39:52;78.03;;;34.45;;
60241;SDS011;46103;52.076;113.488;2024-01-27T06:46:08;70.03;;;31.92;;
60241;SDS011;46103;52.076;113.488;2024-01-27T06:49:14;74.45;;;32.85;;
60241;SDS011;46103;52.076;113.488;2024-01-27T06:52:25;77.38;;;35.35;;
60241;SDS011;46103;52.076;113.488;2024-01-27T06:55:32;59.53;;;25.10;;
60241;SDS011;46103;52.076;113.488;2024-01-27T06:58:45;52.00;;;21.52;;
60241;SDS011;46103;52.076;113.488;2024-01-27T07:01:53;55.85;;;23.90;;
60241;SDS011;46103;52.076;113.488;2024-01-27T07:04:59;46.60;;;19.95;;
60241;SDS011;46103;52.076;113.488;2024-01-27T07:08:09;58.40;;;25.67;;
60241;SDS011;46103;52.076;113.488;2024-01-27T07:11:17;74.78;;;32.03;;
60241;SDS011;46103;52.076;113.488;2024-01-27T07:14:24;60.30;;;30.50;;
60241;SDS011;46103;52.076;113.488;2024-01-27T07:17:30;61.03;;;28.10;;
60241;SDS011;46103;52.076;113.488;2024-01-27T07:20:37;51.25;;;22.38;;
60241;SDS011;46103;52.076;113.488;2024-01-27T07:23:43;49.38;;;22.80;;
60241;SDS011;46103;52.076;113.488;2024-01-27T07:26:53;43.10;;;19.80;;
60241;SDS011;46103;52.076;113.488;2024-01-27T07:30:00;46.17;;;19.90;;
60241;SDS011;46103;52.076;113.488;2024-01-27T07:33:10;42.67;;;18.60;;
60241;SDS011;46103;52.076;113.488;2024-01-27T07:36:17;55.90;;;22.25;;
60241;SDS011;46103;52.076;113.488;2024-01-27T07:39:23;44.90;;;18.88;;
60241;SDS011;46103;52.076;113.488;2024-01-27T07:42:29;34.13;;;13.75;;
60241;SDS011;46103;52.076;113.488;2024-01-27T07:45:38;37.88;;;15.50;;
60241;SDS011;46103;52.076;113.488;2024-01-27T07:48:44;35.88;;;16.38;;
60241;SDS011;46103;52.076;113.488;2024-01-27T07:51:51;42.92;;;17.80;;
60241;SDS011;46103;52.076;113.488;2024-01-27T07:54:58;42.17;;;16.73;;
60241;SDS011;46103;52.076;113.488;2024-01-27T07:58:04;33.15;;;15.05;;
60241;SDS011;46103;52.076;113.488;2024-01-27T08:01:14;37.92;;;15.18;;
60241;SDS011;46103;52.076;113.488;2024-01-27T08:04:21;38.75;;;17.13;;
60241;SDS011;46103;52.076;113.488;2024-01-27T08:07:28;29.15;;;13.27;;
60241;SDS011;46103;52.076;113.488;2024-01-27T08:10:40;80.57;;;39.45;;
60241;SDS011;46103;52.076;113.488;2024-01-27T08:13:45;96.20;;;44.83;;
60241;SDS011;46103;52.076;113.488;2024-01-27T08:16:58;118.00;;;57.13;;
60241;SDS011;46103;52.076;113.488;2024-01-27T08:20:08;143.07;;;64.25;;
60241;SDS011;46103;52.076;113.488;2024-01-27T08:23:20;146.25;;;66.63;;
60241;SDS011;46103;52.076;113.488;2024-01-27T08:26:27;144.55;;;66.80;;
60241;SDS011;46103;52.076;113.488;2024-01-27T08:29:33;183.63;;;83.07;;
60241;SDS011;46103;52.076;113.488;2024-01-27T08:32:39;186.57;;;81.28;;
60241;SDS011;46103;52.076;113.488;2024-01-27T08:35:46;179.93;;;79.90;;
60241;SDS011;46103;52.076;113.488;2024-01-27T08:38:52;176.75;;;82.03;;
60241;SDS011;46103;52.076;113.488;2024-01-27T08:41:57;183.13;;;84.25;;
60241;SDS011;46103;52.076;113.488;2024-01-27T08:45:04;194.13;;;87.40;;
60241;SDS011;46103;52.076;113.488;2024-01-27T08:48:21;177.70;;;78.55;;
60241;SDS011;46103;52.076;113.488;2024-01-27T08:51:27;135.95;;;61.70;;
60241;SDS011;46103;52.076;113.488;2024-01-27T08:54:39;127.13;;;57.00;;
60241;SDS011;46103;52.076;113.488;2024-01-27T08:57:48;101.80;;;48.15;;
60241;SDS011;46103;52.076;113.488;2024-01-27T09:00:54;138.00;;;59.03;;
60241;SDS011;46103;52.076;113.488;2024-01-27T09:04:05;159.50;;;67.88;;
60241;SDS011;46103;52.076;113.488;2024-01-27T09:07:12;156.73;;;70.22;;
60241;SDS011;46103;52.076;113.488;2024-01-27T09:10:17;149.27;;;70.22;;
60241;SDS011;46103;52.076;113.488;2024-01-27T09:13:25;170.68;;;78.00;;
60241;SDS011;46103;52.076;113.488;2024-01-27T09:16:31;167.63;;;78.85;;
60241;SDS011;46103;52.076;113.488;2024-01-27T09:19:38;181.32;;;76.72;;
60241;SDS011;46103;52.076;113.488;2024-01-27T09:22:43;155.13;;;69.68;;
60241;SDS011;46103;52.076;113.488;2024-01-27T09:25:52;164.15;;;69.25;;
60241;SDS011;46103;52.076;113.488;2024-01-27T09:28:57;124.95;;;56.25;;
60241;SDS011;46103;52.076;113.488;2024-01-27T09:32:05;147.80;;;65.10;;
60241;SDS011;46103;52.076;113.488;2024-01-27T09:35:11;118.60;;;52.17;;
60241;SDS011;46103;52.076;113.488;2024-01-27T09:38:18;140.90;;;56.00;;
60241;SDS011;46103;52.076;113.488;2024-01-27T09:41:23;129.43;;;54.53;;
60241;SDS011;46103;52.076;113.488;2024-01-27T09:44:30;123.63;;;52.35;;
60241;SDS011;46103;52.076;113.488;2024-01-27T09:47:39;124.63;;;51.13;;
60241;SDS011;46103;52.076;113.488;2024-01-27T09:50:54;120.10;;;52.35;;
60241;SDS011;46103;52.076;113.488;2024-01-27T09:54:06;113.63;;;50.15;;
60241;SDS011;46103;52.076;113.488;2024-01-27T09:57:12;124.68;;;51.22;;
60241;SDS011;46103;52.076;113.488;2024-01-27T10:00:18;125.03;;;53.90;;
60241;SDS011;46103;52.076;113.488;2024-01-27T10:03:27;126.80;;;48.67;;
60241;SDS011;46103;52.076;113.488;2024-01-27T10:06:36;106.95;;;47.97;;
60241;SDS011;46103;52.076;113.488;2024-01-27T10:09:44;109.30;;;49.90;;
60241;SDS011;46103;52.076;113.488;2024-01-27T10:12:54;112.68;;;47.40;;
60241;SDS011;46103;52.076;113.488;2024-01-27T10:16:08;100.20;;;46.78;;
60241;SDS011;46103;52.076;113.488;2024-01-27T10:23:38;106.07;;;44.45;;
60241;SDS011;46103;52.076;113.488;2024-01-27T10:27:04;113.35;;;49.55;;
60241;SDS011;46103;52.076;113.488;2024-01-27T10:30:14;113.50;;;48.03;;
60241;SDS011;46103;52.076;113.488;2024-01-27T10:33:20;105.47;;;45.67;;
60241;SDS011;46103;52.076;113.488;2024-01-27T10:36:25;103.40;;;46.03;;
60241;SDS011;46103;52.076;113.488;2024-01-27T10:39:33;110.28;;;45.22;;
60241;SDS011;46103;52.076;113.488;2024-01-27T10:42:37;99.13;;;41.17;;
60241;SDS011;46103;52.076;113.488;2024-01-27T10:45:42;70.10;;;30.15;;
60241;SDS011;46103;52.076;113.488;2024-01-27T10:48:47;80.25;;;35.92;;
60241;SDS011;46103;52.076;113.488;2024-01-27T10:51:58;110.95;;;45.42;;
60241;SDS011;46103;52.076;113.488;2024-01-27T10:55:05;121.10;;;51.95;;
60241;SDS011;46103;52.076;113.488;2024-01-27T10:58:12;142.70;;;60.63;;
60241;SDS011;46103;52.076;113.488;2024-01-27T11:01:18;56.17;;;23.00;;
60241;SDS011;46103;52.076;113.488;2024-01-27T11:05:00;68.22;;;32.90;;
60241;SDS011;46103;52.076;113.488;2024-01-27T11:08:07;60.13;;;24.45;;
60241;SDS011;46103;52.076;113.488;2024-01-27T11:11:15;98.18;;;43.63;;
60241;SDS011;46103;52.076;113.488;2024-01-27T11:14:20;43.72;;;16.67;;
60241;SDS011;46103;52.076;113.488;2024-01-27T11:17:26;48.75;;;19.52;;
60241;SDS011;46103;52.076;113.488;2024-01-27T11:20:31;27.95;;;13.30;;
60241;SDS011;46103;52.076;113.488;2024-01-27T11:23:35;114.35;;;46.75;;
60241;SDS011;46103;52.076;113.488;2024-01-27T11:26:39;153.82;;;63.05;;
60241;SDS011;46103;52.076;113.488;2024-01-27T11:29:47;118.15;;;49.75;;
60241;SDS011;46103;52.076;113.488;2024-01-27T11:32:57;165.38;;;68.40;;
60241;SDS011;46103;52.076;113.488;2024-01-27T11:36:04;118.20;;;49.78;;
60241;SDS011;46103;52.076;113.488;2024-01-27T11:39:28;88.60;;;37.88;;
60241;SDS011;46103;52.076;113.488;2024-01-27T11:42:59;13.43;;;6.63;;
60241;SDS011;46103;52.076;113.488;2024-01-27T11:46:29;24.08;;;10.00;;
60241;SDS011;46103;52.076;113.488;2024-01-27T11:49:34;21.90;;;10.45;;
60241;SDS011;46103;52.076;113.488;2024-01-27T11:52:44;39.75;;;18.30;;
60241;SDS011;46103;52.076;113.488;2024-01-27T11:55:54;34.90;;;15.75;;
60241;SDS011;46103;52.076;113.488;2024-01-27T11:59:17;44.90;;;19.73;;
60241;SDS011;46103;52.076;113.488;2024-01-27T12:02:27;41.25;;;16.13;;
60241;SDS011;46103;52.076;113.488;2024-01-27T12:05:34;43.95;;;17.05;;
60241;SDS011;46103;52.076;113.488;2024-01-27T12:08:38;38.63;;;15.80;;
60241;SDS011;46103;52.076;113.488;2024-01-27T12:11:52;50.78;;;19.20;;
60241;SDS011;46103;52.076;113.488;2024-01-27T12:14:59;52.95;;;21.85;;
60241;SDS011;46103;52.076;113.488;2024-01-27T12:18:06;66.32;;;26.30;;
60241;SDS011;46103;52.076;113.488;2024-01-27T12:21:13;69.63;;;24.63;;
60241;SDS011;46103;52.076;113.488;2024-01-27T12:24:23;62.80;;;26.45;;
60241;SDS011;46103;52.076;113.488;2024-01-27T12:27:29;71.95;;;31.73;;
60241;SDS011;46103;52.076;113.488;2024-01-27T12:30:36;68.63;;;29.55;;
60241;SDS011;46103;52.076;113.488;2024-01-27T12:33:52;67.90;;;31.08;;
60241;SDS011;46103;52.076;113.488;2024-01-27T12:37:00;76.38;;;33.15;;
60241;SDS011;46103;52.076;113.488;2024-01-27T12:40:17;114.72;;;45.13;;
60241;SDS011;46103;52.076;113.488;2024-01-27T12:43:26;83.75;;;34.05;;
60241;SDS011;46103;52.076;113.488;2024-01-27T12:46:30;100.05;;;43.65;;
60241;SDS011;46103;52.076;113.488;2024-01-27T12:49:35;122.85;;;44.75;;
60241;SDS011;46103;52.076;113.488;2024-01-27T12:52:40;61.63;;;22.20;;
60241;SDS011;46103;52.076;113.488;2024-01-27T12:58:47;37.40;;;19.30;;
60241;SDS011;46103;52.076;113.488;2024-01-27T13:01:52;38.58;;;17.35;;
60241;SDS011;46103;52.076;113.488;2024-01-27T13:04:56;40.47;;;15.65;;
60241;SDS011;46103;52.076;113.488;2024-01-27T13:08:03;39.35;;;16.67;;
60241;SDS011;46103;52.076;113.488;2024-01-27T13:11:29;26.83;;;11.32;;
60241;SDS011;46103;52.076;113.488;2024-01-27T13:14:34;32.53;;;14.52;;
60241;SDS011;46103;52.076;113.488;2024-01-27T13:17:44;47.88;;;17.40;;
60241;SDS011;46103;52.076;113.488;2024-01-27T13:25:42;44.33;;;20.48;;
60241;SDS011;46103;52.076;113.488;2024-01-27T13:29:35;59.67;;;27.00;;
60241;SDS011;46103;52.076;113.488;2024-01-27T13:32:58;50.55;;;23.25;;
60241;SDS011;46103;52.076;113.488;2024-01-27T13:37:41;51.70;;;22.30;;
60241;SDS011;46103;52.076;113.488;2024-01-27T13:40:50;32.33;;;14.02;;
60241;SDS011;46103;52.076;113.488;2024-01-27T13:44:05;75.88;;;25.17;;
60241;SDS011;46103;52.076;113.488;2024-01-27T13:47:15;55.08;;;25.40;;
60241;SDS011;46103;52.076;113.488;2024-01-27T13:51:08;61.28;;;27.83;;
60241;SDS011;46103;52.076;113.488;2024-01-27T13:54:49;60.88;;;23.83;;
60241;SDS011;46103;52.076;113.488;2024-01-27T13:58:03;56.65;;;25.13;;
60241;SDS011;46103;52.076;113.488;2024-01-27T14:01:24;80.47;;;30.88;;
60241;SDS011;46103;52.076;113.488;2024-01-27T14:04:33;84.30;;;34.00;;
60241;SDS011;46103;52.076;113.488;2024-01-27T14:07:38;72.85;;;32.47;;
60241;SDS011;46103;52.076;113.488;2024-01-27T14:10:44;40.58;;;17.65;;
60241;SDS011;46103;52.076;113.488;2024-01-27T14:13:53;52.92;;;19.95;;
60241;SDS011;46103;52.076;113.488;2024-01-27T14:17:08;45.88;;;18.55;;
60241;SDS011;46103;52.076;113.488;2024-01-27T14:20:16;21.90;;;12.55;;
60241;SDS011;46103;52.076;113.488;2024-01-27T14:23:23;41.50;;;16.38;;
60241;SDS011;46103;52.076;113.488;2024-01-27T14:26:31;38.90;;;17.33;;
60241;SDS011;46103;52.076;113.488;2024-01-27T14:29:59;26.95;;;11.02;;
60241;SDS011;46103;52.076;113.488;2024-01-27T14:33:19;31.45;;;12.68;;
60241;SDS011;46103;52.076;113.488;2024-01-27T14:36:29;23.88;;;10.10;;
60241;SDS011;46103;52.076;113.488;2024-01-27T14:39:38;24.67;;;7.07;;
60241;SDS011;46103;52.076;113.488;2024-01-27T14:50:25;17.35;;;5.55;;
60241;SDS011;46103;52.076;113.488;2024-01-27T14:53:48;21.60;;;8.20;;
60241;SDS011;46103;52.076;113.488;2024-01-27T14:56:54;10.82;;;5.07;;
60241;SDS011;46103;52.076;113.488;2024-01-27T15:14:45;13.02;;;3.80;;
60241;SDS011;46103;52.076;113.488;2024-01-27T15:25:45;11.90;;;3.30;;
60241;SDS011;46103;52.076;113.488;2024-01-27T15:40:01;6.97;;;2.92;;
60241;SDS011;46103;52.076;113.488;2024-01-27T15:43:34;8.50;;;4.07;;
60241;SDS011;46103;52.076;113.488;2024-01-27T15:46:48;10.48;;;3.45;;
60241;SDS011;46103;52.076;113.488;2024-01-27T15:53:12;8.30;;;2.70;;
60241;SDS011;46103;52.076;113.488;2024-01-27T16:18:30;6.07;;;2.70;;
60241;SDS011;46103;52.076;113.488;2024-01-27T16:32:46;3.97;;;1.75;;
60241;SDS011;46103;52.076;113.488;2024-01-27T16:36:07;6.70;;;3.40;;
60241;SDS011;46103;52.076;113.488;2024-01-27T16:39:23;2.45;;;1.02;;
60241;SDS011;46103;52.076;113.488;2024-01-27T16:42:45;2.85;;;1.98;;
60241;SDS011;46103;52.076;113.488;2024-01-27T17:00:14;5.80;;;2.08;;
60241;SDS011;46103;52.076;113.488;2024-01-27T17:21:39;3.78;;;1.38;;
60241;SDS011;46103;52.076;113.488;2024-01-27T17:31:57;2.00;;;1.08;;
60241;SDS011;46103;52.076;113.488;2024-01-27T18:00:41;4.50;;;1.85;;
60241;SDS011;46103;52.076;113.488;2024-01-27T23:11:51;1.27;;;0.28;;
60241;SDS011;46103;52.076;113.488;2024-01-27T23:26:15;2.63;;;0.45;;
